createdAt,value
2022-08-21T00:00:29.217Z,17.40
2022-08-21T00:03:02.254Z,17.30
2022-08-21T00:05:29.486Z,17.30
2022-08-21T00:07:57.193Z,17.20
2022-08-21T00:10:25.628Z,17.10
2022-08-21T00:12:52.619Z,17.10
2022-08-21T00:15:24.497Z,17.10
2022-08-21T00:17:51.340Z,17.20
2022-08-21T00:20:19.106Z,17.10
2022-08-21T00:22:46.420Z,17.10
2022-08-21T00:25:15.024Z,17.20
2022-08-21T00:27:43.510Z,17.20
2022-08-21T00:30:11.697Z,17.30
2022-08-21T00:32:51.416Z,17.30
2022-08-21T00:35:22.922Z,17.40
2022-08-21T00:37:50.386Z,17.50
2022-08-21T00:40:21.617Z,17.50
2022-08-21T00:42:53.760Z,17.60
2022-08-21T00:45:23.281Z,17.60
2022-08-21T00:47:51.380Z,17.30
2022-08-21T00:50:21.942Z,17.30
2022-08-21T00:52:52.107Z,17.30
2022-08-21T00:55:20.729Z,17.30
2022-08-21T00:57:53.430Z,17.20
2022-08-21T01:00:25.776Z,17.30
2022-08-21T01:02:52.735Z,17.30
2022-08-21T01:05:19.821Z,17.40
2022-08-21T01:07:47.185Z,17.40
2022-08-21T01:10:24.234Z,17.40
2022-08-21T01:12:53.815Z,17.30
2022-08-21T01:15:22.648Z,17.20
2022-08-21T01:17:50.841Z,17.00
2022-08-21T01:20:17.743Z,17.10
2022-08-21T01:22:44.644Z,17.00
2022-08-21T01:25:16.073Z,17.00
2022-08-21T01:27:43.493Z,16.90
2022-08-21T01:30:17.480Z,16.80
2022-08-21T01:32:44.823Z,16.80
2022-08-21T01:35:13.752Z,16.80
2022-08-21T01:37:40.970Z,16.80
2022-08-21T01:40:09.409Z,16.80
2022-08-21T01:42:36.403Z,17.10
2022-08-21T01:45:04.789Z,17.00
2022-08-21T01:47:31.764Z,17.00
2022-08-21T01:49:58.598Z,16.90
2022-08-21T01:52:26.357Z,16.80
2022-08-21T01:54:55.493Z,16.60
2022-08-21T01:57:23.406Z,16.50
2022-08-21T01:59:53.429Z,16.60
2022-08-21T02:02:20.560Z,16.60
2022-08-21T02:04:47.670Z,16.50
2022-08-21T02:07:14.573Z,16.70
2022-08-21T02:09:43.365Z,16.60
2022-08-21T02:12:12.129Z,16.40
2022-08-21T02:14:39.213Z,16.50
2022-08-21T02:17:09.297Z,16.50
2022-08-21T02:19:40.520Z,16.50
2022-08-21T02:22:10.473Z,16.40
2022-08-21T02:24:53.945Z,16.30
2022-08-21T02:27:27.009Z,16.50
2022-08-21T02:29:56.638Z,16.30
2022-08-21T02:32:23.521Z,16.10
2022-08-21T02:34:50.809Z,16.20
2022-08-21T02:37:17.717Z,16.20
2022-08-21T02:39:44.623Z,16.20
2022-08-21T02:42:11.629Z,16.30
2022-08-21T02:44:38.656Z,16.20
2022-08-21T02:47:05.823Z,16.20
2022-08-21T02:49:32.768Z,16.00
2022-08-21T02:52:00.181Z,15.90
2022-08-21T02:54:27.294Z,15.80
2022-08-21T02:56:54.434Z,15.80
2022-08-21T02:59:21.371Z,15.80
2022-08-21T03:01:48.499Z,15.80
2022-08-21T03:04:16.038Z,15.90
2022-08-21T03:06:42.925Z,16.00
2022-08-21T03:09:10.900Z,16.00
2022-08-21T03:11:37.871Z,15.80
2022-08-21T03:14:06.084Z,16.00
2022-08-21T03:16:35.209Z,16.10
2022-08-21T03:19:03.678Z,16.00
2022-08-21T03:21:31.266Z,16.00
2022-08-21T03:23:58.041Z,15.90
2022-08-21T03:26:27.840Z,15.70
2022-08-21T03:28:55.507Z,15.60
2022-08-21T03:31:22.537Z,15.60
2022-08-21T03:33:49.526Z,15.80
2022-08-21T03:36:17.013Z,15.90
2022-08-21T03:38:44.024Z,15.80
2022-08-21T03:41:11.058Z,15.70
2022-08-21T03:43:39.405Z,15.60
2022-08-21T03:46:07.121Z,15.70
2022-08-21T03:48:36.212Z,15.60
2022-08-21T03:51:04.388Z,15.70
2022-08-21T03:53:31.333Z,15.70
2022-08-21T03:55:58.629Z,15.80
2022-08-21T03:58:28.825Z,15.80
2022-08-21T04:00:58.618Z,15.70
2022-08-21T04:03:26.574Z,15.70
2022-08-21T04:05:53.619Z,15.60
2022-08-21T04:08:20.921Z,15.70
2022-08-21T04:10:51.629Z,15.50
2022-08-21T04:13:18.303Z,15.40
2022-08-21T04:15:45.660Z,15.40
2022-08-21T04:18:13.051Z,15.40
2022-08-21T04:20:41.504Z,15.30
2022-08-21T04:23:12.433Z,15.40
2022-08-21T04:25:51.811Z,15.30
2022-08-21T04:28:18.816Z,15.30
2022-08-21T04:30:46.018Z,15.60
2022-08-21T04:33:13.172Z,15.60
2022-08-21T04:35:40.341Z,15.60
2022-08-21T04:38:07.170Z,15.40
2022-08-21T04:40:34.405Z,15.40
2022-08-21T04:43:10.088Z,15.30
2022-08-21T04:45:43.762Z,15.10
2022-08-21T04:48:14.223Z,15.00
2022-08-21T04:50:48.526Z,15.00
2022-08-21T04:53:25.322Z,14.90
2022-08-21T04:55:53.568Z,14.80
2022-08-21T04:58:23.766Z,14.90
2022-08-21T05:00:54.880Z,15.00
2022-08-21T05:03:22.593Z,15.20
2022-08-21T05:05:50.096Z,15.30
2022-08-21T05:08:20.221Z,15.40
2022-08-21T05:10:47.512Z,15.60
2022-08-21T05:13:14.613Z,15.80
2022-08-21T05:15:42.771Z,15.90
2022-08-21T05:18:09.518Z,15.90
2022-08-21T05:20:37.049Z,15.90
2022-08-21T05:23:09.866Z,16.00
2022-08-21T05:25:36.979Z,15.90
2022-08-21T05:28:04.295Z,15.80
2022-08-21T05:30:31.350Z,15.90
2022-08-21T05:33:00.106Z,16.00
2022-08-21T05:35:28.300Z,15.90
2022-08-21T05:37:56.031Z,15.60
2022-08-21T05:40:23.687Z,15.40
2022-08-21T05:42:54.765Z,15.40
2022-08-21T05:45:43.505Z,15.80
2022-08-21T05:48:21.612Z,15.70
2022-08-21T05:50:49.607Z,15.80
2022-08-21T05:53:18.614Z,15.70
2022-08-21T05:55:47.001Z,15.90
2022-08-21T05:58:19.975Z,15.90
2022-08-21T06:00:48.629Z,16.00
2022-08-21T06:03:25.544Z,16.10
2022-08-21T06:05:53.714Z,16.10
2022-08-21T06:08:24.087Z,16.00
2022-08-21T06:10:53.404Z,16.00
2022-08-21T06:13:21.680Z,16.10
2022-08-21T06:15:49.520Z,16.20
2022-08-21T06:18:17.045Z,16.30
2022-08-21T06:20:46.009Z,16.50
2022-08-21T06:23:13.233Z,16.60
2022-08-21T06:25:39.924Z,16.70
2022-08-21T06:28:09.329Z,16.60
2022-08-21T06:30:37.382Z,16.80
2022-08-21T06:33:04.792Z,16.90
2022-08-21T06:35:31.685Z,16.70
2022-08-21T06:37:59.117Z,16.70
2022-08-21T06:40:27.764Z,16.90
2022-08-21T06:43:06.048Z,17.90
2022-08-21T06:45:33.241Z,19.40
2022-08-21T06:48:00.625Z,21.60
2022-08-21T06:50:27.505Z,24.10
2022-08-21T06:53:09.402Z,25.40
2022-08-21T06:55:36.365Z,27.10
2022-08-21T06:58:05.413Z,26.90
2022-08-21T07:00:32.821Z,28.00
2022-08-21T07:02:59.903Z,29.50
2022-08-21T07:05:29.242Z,30.20
2022-08-21T07:07:56.575Z,31.00
2022-08-21T07:10:24.034Z,28.80
2022-08-21T07:12:59.096Z,27.20
2022-08-21T07:15:29.601Z,27.00
2022-08-21T07:17:58.091Z,27.40
2022-08-21T07:20:25.408Z,27.60
2022-08-21T07:22:52.469Z,28.80
2022-08-21T07:25:19.297Z,28.20
2022-08-21T07:27:46.279Z,27.60
2022-08-21T07:30:13.249Z,29.50
2022-08-21T07:32:40.381Z,29.10
2022-08-21T07:35:08.341Z,29.10
2022-08-21T07:37:35.564Z,29.40
2022-08-21T07:40:02.427Z,30.30
2022-08-21T07:42:29.308Z,31.00
2022-08-21T07:44:56.855Z,32.90
2022-08-21T07:47:41.571Z,32.20
2022-08-21T07:50:11.837Z,31.30
2022-08-21T07:52:39.772Z,31.40
2022-08-21T07:55:07.622Z,30.90
2022-08-21T07:57:34.734Z,29.40
2022-08-21T08:00:01.510Z,27.90
2022-08-21T08:02:30.515Z,26.60
2022-08-21T08:05:15.474Z,27.70
2022-08-21T08:07:42.218Z,29.40
2022-08-21T08:10:10.117Z,29.20
2022-08-21T08:12:39.419Z,29.00
2022-08-21T08:15:09.445Z,29.60
2022-08-21T08:17:36.385Z,30.40
2022-08-21T08:20:04.425Z,30.20
2022-08-21T08:22:31.331Z,28.20
2022-08-21T08:24:58.193Z,27.10
2022-08-21T08:27:24.984Z,28.10
2022-08-21T08:29:52.409Z,28.60
2022-08-21T08:32:19.869Z,28.10
2022-08-21T08:34:48.089Z,26.70
2022-08-21T08:37:14.860Z,26.10
2022-08-21T08:39:42.214Z,26.10
2022-08-21T08:42:33.365Z,26.40
2022-08-21T08:45:14.114Z,27.60
2022-08-21T08:47:45.524Z,30.20
2022-08-21T08:50:42.521Z,31.10
2022-08-21T08:53:23.087Z,30.40
2022-08-21T08:55:53.268Z,30.60
2022-08-21T08:58:29.430Z,30.70
2022-08-21T09:00:56.783Z,31.60
2022-08-21T09:03:25.282Z,33.70
2022-08-21T09:06:05.367Z,35.40
2022-08-21T09:08:43.530Z,35.90
2022-08-21T09:11:31.956Z,35.90
2022-08-21T09:14:23.053Z,33.00
2022-08-21T09:17:13.407Z,32.20
2022-08-21T09:19:55.122Z,31.30
2022-08-21T09:22:43.852Z,32.60
2022-08-21T09:25:36.773Z,33.40
2022-08-21T09:28:03.532Z,34.60
2022-08-21T09:30:33.496Z,34.60
2022-08-21T09:33:00.964Z,32.00
2022-08-21T09:35:28.147Z,30.40
2022-08-21T09:38:06.450Z,29.60
2022-08-21T09:40:47.945Z,30.50
2022-08-21T09:43:15.244Z,31.60
2022-08-21T09:45:45.858Z,33.70
2022-08-21T09:48:27.018Z,33.90
2022-08-21T09:51:18.912Z,32.40
2022-08-21T09:53:53.380Z,33.60
2022-08-21T09:56:39.342Z,35.60
2022-08-21T09:59:26.627Z,33.80
2022-08-21T10:01:54.926Z,34.70
2022-08-21T10:04:25.680Z,37.10
2022-08-21T10:06:52.529Z,37.40
2022-08-21T10:09:23.676Z,37.10
2022-08-21T10:12:05.010Z,35.20
2022-08-21T10:14:53.497Z,32.70
2022-08-21T10:17:39.741Z,31.00
2022-08-21T10:20:31.594Z,29.00
2022-08-21T10:23:27.449Z,29.80
2022-08-21T10:26:14.548Z,30.90
2022-08-21T10:29:00.470Z,29.20
2022-08-21T10:31:47.163Z,30.00
2022-08-21T10:34:51.647Z,30.90
2022-08-21T10:37:23.417Z,33.70
2022-08-21T10:40:14.674Z,33.00
2022-08-21T10:43:02.274Z,33.50
2022-08-21T10:45:41.448Z,34.50
2022-08-21T10:48:13.437Z,36.30
2022-08-21T10:50:49.501Z,36.10
2022-08-21T10:53:38.479Z,34.20
2022-08-21T10:56:29.466Z,33.70
2022-08-21T10:59:38.403Z,33.90
2022-08-21T11:02:14.359Z,33.80
2022-08-21T11:04:58.784Z,30.90
2022-08-21T11:07:34.332Z,30.70
2022-08-21T11:10:12.933Z,30.10
2022-08-21T11:12:52.978Z,28.60
2022-08-21T11:15:37.591Z,28.00
2022-08-21T11:18:19.104Z,28.50
2022-08-21T11:20:52.618Z,28.90
2022-08-21T11:23:46.406Z,29.20
2022-08-21T11:26:40.216Z,30.00
2022-08-21T11:29:29.466Z,30.90
2022-08-21T11:32:02.433Z,32.80
2022-08-21T11:34:58.405Z,34.10
2022-08-21T11:37:59.519Z,33.40
2022-08-21T11:40:48.324Z,34.10
2022-08-21T11:43:37.485Z,31.70
2022-08-21T11:46:37.117Z,31.50
2022-08-21T11:49:06.429Z,32.30
2022-08-21T11:52:09.788Z,33.70
2022-08-21T11:55:28.945Z,34.60
2022-08-21T11:58:23.084Z,33.20
2022-08-21T12:00:56.008Z,32.20
2022-08-21T12:03:53.632Z,33.80
2022-08-21T12:06:31.069Z,36.90
2022-08-21T12:09:01.711Z,37.80
2022-08-21T12:11:30.629Z,35.90
2022-08-21T12:13:58.112Z,36.30
2022-08-21T12:16:34.400Z,35.60
2022-08-21T12:19:24.712Z,35.60
2022-08-21T12:21:59.352Z,32.00
2022-08-21T12:24:29.312Z,30.70
2022-08-21T12:26:57.969Z,30.10
2022-08-21T12:29:33.544Z,29.70
2022-08-21T12:32:15.315Z,28.50
2022-08-21T12:34:48.385Z,28.50
2022-08-21T12:37:25.743Z,28.90
2022-08-21T12:39:54.754Z,28.70
2022-08-21T12:42:24.049Z,27.70
2022-08-21T12:44:59.744Z,27.00
2022-08-21T12:47:50.470Z,26.50
2022-08-21T12:50:38.348Z,26.50
2022-08-21T12:53:24.125Z,26.90
2022-08-21T12:55:51.539Z,26.70
2022-08-21T12:58:25.837Z,26.60
2022-08-21T13:01:25.636Z,26.80
2022-08-21T13:04:11.990Z,27.60
2022-08-21T13:06:42.834Z,27.80
2022-08-21T13:09:13.555Z,28.30
2022-08-21T13:11:46.436Z,28.50
2022-08-21T13:14:24.561Z,29.10
2022-08-21T13:16:59.583Z,29.00
2022-08-21T13:19:27.578Z,28.80
2022-08-21T13:21:54.552Z,28.60
2022-08-21T13:24:44.002Z,28.10
2022-08-21T13:27:28.697Z,28.50
2022-08-21T13:30:23.271Z,28.50
2022-08-21T13:32:56.477Z,28.70
2022-08-21T13:35:32.640Z,28.80
2022-08-21T13:38:00.835Z,29.10
2022-08-21T13:40:32.446Z,28.70
2022-08-21T13:43:01.268Z,27.80
2022-08-21T13:45:36.756Z,27.60
2022-08-21T13:48:06.725Z,27.20
2022-08-21T13:50:35.910Z,27.40
2022-08-21T13:53:06.653Z,27.40
2022-08-21T13:55:42.817Z,27.60
2022-08-21T13:58:12.299Z,27.40
2022-08-21T14:00:51.460Z,28.00
2022-08-21T14:03:38.830Z,28.20
2022-08-21T14:06:26.159Z,28.70
2022-08-21T14:09:14.454Z,29.80
2022-08-21T14:11:41.925Z,29.70
2022-08-21T14:14:23.321Z,29.30
2022-08-21T14:17:23.989Z,29.30
2022-08-21T14:19:51.804Z,29.60
2022-08-21T14:22:35.364Z,29.10
2022-08-21T14:25:15.608Z,28.50
2022-08-21T14:27:57.308Z,28.60
2022-08-21T14:30:36.623Z,28.70
2022-08-21T14:33:08.468Z,28.90
2022-08-21T14:35:35.393Z,29.00
2022-08-21T14:38:02.484Z,29.00
2022-08-21T14:40:29.633Z,29.00
2022-08-21T14:42:58.377Z,28.80
2022-08-21T14:45:31.058Z,28.70
2022-08-21T14:47:59.753Z,28.70
2022-08-21T14:50:28.030Z,28.40
2022-08-21T14:52:56.448Z,28.60
2022-08-21T14:55:23.241Z,28.70
2022-08-21T14:57:52.972Z,27.80
2022-08-21T15:00:27.161Z,27.40
2022-08-21T15:03:03.198Z,27.80
2022-08-21T15:05:33.726Z,27.40
2022-08-21T15:08:02.183Z,26.90
2022-08-21T15:10:32.358Z,27.10
2022-08-21T15:12:59.653Z,27.30
2022-08-21T15:15:26.978Z,27.30
2022-08-21T15:17:53.903Z,26.80
2022-08-21T15:20:21.004Z,27.10
2022-08-21T15:22:58.219Z,27.30
2022-08-21T15:25:25.880Z,27.60
2022-08-21T15:27:52.595Z,27.80
2022-08-21T15:30:19.687Z,27.80
2022-08-21T15:32:46.868Z,28.00
2022-08-21T15:35:14.051Z,28.10
2022-08-21T15:37:41.602Z,28.00
2022-08-21T15:40:09.016Z,27.70
2022-08-21T15:42:36.318Z,27.00
2022-08-21T15:45:04.612Z,26.80
2022-08-21T15:47:35.002Z,26.80
2022-08-21T15:50:03.037Z,26.80
2022-08-21T15:52:32.683Z,26.60
2022-08-21T15:54:59.717Z,26.20
2022-08-21T15:57:27.077Z,26.10
2022-08-21T15:59:58.902Z,26.30
2022-08-21T16:02:31.215Z,26.30
2022-08-21T16:04:58.559Z,26.30
2022-08-21T16:07:26.226Z,26.70
2022-08-21T16:09:53.184Z,26.50
2022-08-21T16:12:31.777Z,26.40
2022-08-21T16:15:00.777Z,26.70
2022-08-21T16:17:33.444Z,26.90
2022-08-21T16:20:01.785Z,26.70
2022-08-21T16:22:39.872Z,27.00
2022-08-21T16:25:11.490Z,26.90
2022-08-21T16:27:38.338Z,27.00
2022-08-21T16:30:07.746Z,26.70
2022-08-21T16:32:35.416Z,26.60
2022-08-21T16:35:04.139Z,26.60
2022-08-21T16:37:32.552Z,26.60
2022-08-21T16:39:59.527Z,26.90
2022-08-21T16:42:26.802Z,26.60
2022-08-21T16:44:55.313Z,26.30
2022-08-21T16:47:26.429Z,26.10
2022-08-21T16:49:54.700Z,25.90
2022-08-21T16:52:21.596Z,25.60
2022-08-21T16:54:48.684Z,25.40
2022-08-21T16:57:15.666Z,25.40
2022-08-21T16:59:42.481Z,25.30
2022-08-21T17:02:31.753Z,25.20
2022-08-21T17:04:59.364Z,25.10
2022-08-21T17:07:26.453Z,24.90
2022-08-21T17:09:53.494Z,24.80
2022-08-21T17:12:20.916Z,24.90
2022-08-21T17:14:49.238Z,25.00
2022-08-21T17:17:16.319Z,25.00
2022-08-21T17:19:43.927Z,24.90
2022-08-21T17:22:11.472Z,24.70
2022-08-21T17:24:38.561Z,24.60
2022-08-21T17:27:07.749Z,24.70
2022-08-21T17:29:38.433Z,24.70
2022-08-21T17:32:10.327Z,24.70
2022-08-21T17:34:38.250Z,24.70
2022-08-21T17:37:06.565Z,24.80
2022-08-21T17:39:33.674Z,24.90
2022-08-21T17:42:04.713Z,24.90
2022-08-21T17:44:31.893Z,24.80
2022-08-21T17:46:58.922Z,24.80
2022-08-21T17:49:25.920Z,24.70
2022-08-21T17:51:53.038Z,24.70
2022-08-21T17:54:20.006Z,24.40
2022-08-21T17:56:48.069Z,24.20
2022-08-21T17:59:15.413Z,24.20
2022-08-21T18:01:44.972Z,24.30
2022-08-21T18:04:12.596Z,24.30
2022-08-21T18:06:40.072Z,24.40
2022-08-21T18:09:07.347Z,24.40
2022-08-21T18:11:35.047Z,24.30
2022-08-21T18:14:07.580Z,24.10
2022-08-21T18:16:37.434Z,24.00
2022-08-21T18:19:09.456Z,23.80
2022-08-21T18:21:36.516Z,23.80
2022-08-21T18:24:03.851Z,23.90
2022-08-21T18:26:38.142Z,23.90
2022-08-21T18:29:09.131Z,23.70
2022-08-21T18:31:38.019Z,23.70
2022-08-21T18:34:14.301Z,23.70
2022-08-21T18:36:42.835Z,23.60
2022-08-21T18:39:35.029Z,23.50
2022-08-21T18:41:57.930Z,23.50
2022-08-21T18:44:29.608Z,23.50
2022-08-21T18:47:01.396Z,23.40
2022-08-21T18:49:28.957Z,23.20
2022-08-21T18:51:57.403Z,23.30
2022-08-21T18:54:24.993Z,23.20
2022-08-21T18:56:54.852Z,23.10
2022-08-21T18:59:23.861Z,23.00
2022-08-21T19:01:51.532Z,23.00
2022-08-21T19:04:43.191Z,23.00
2022-08-21T19:07:05.701Z,22.80
2022-08-21T19:09:32.658Z,22.90
2022-08-21T19:12:00.767Z,22.80
2022-08-21T19:14:29.247Z,22.80
2022-08-21T19:16:56.581Z,22.80
2022-08-21T19:19:23.618Z,22.80
2022-08-21T19:21:50.484Z,22.40
2022-08-21T19:24:18.237Z,22.10
2022-08-21T19:26:50.231Z,22.00
2022-08-21T19:32:11.330Z,22.30
2022-08-21T19:34:39.584Z,22.40
2022-08-21T19:37:07.518Z,22.50
2022-08-21T19:39:42.376Z,22.50
2022-08-21T19:42:13.933Z,22.60
2022-08-21T19:44:41.679Z,22.60
2022-08-21T19:47:19.041Z,22.60
2022-08-21T19:50:17.313Z,22.50
2022-08-21T19:52:46.734Z,22.40
2022-08-21T19:55:19.292Z,22.20
2022-08-21T19:57:46.365Z,22.10
2022-08-21T20:00:13.836Z,22.00
2022-08-21T20:02:47.794Z,22.00
2022-08-21T20:05:15.994Z,22.00
2022-08-21T20:07:46.137Z,22.00
2022-08-21T20:10:13.097Z,21.90
2022-08-21T20:12:41.202Z,21.60
2022-08-21T20:15:09.115Z,21.50
2022-08-21T20:17:36.382Z,21.40
2022-08-21T20:20:04.873Z,21.10
2022-08-21T20:22:31.609Z,21.40
2022-08-21T20:24:59.033Z,21.50
2022-08-21T20:27:27.830Z,21.50
2022-08-21T20:29:54.828Z,21.30
2022-08-21T20:32:22.299Z,20.90
2022-08-21T20:35:12.353Z,20.60
2022-08-21T20:37:40.385Z,20.50
2022-08-21T20:40:12.114Z,20.40
2022-08-21T20:42:41.030Z,20.40
2022-08-21T20:45:12.352Z,20.50
2022-08-21T20:47:40.093Z,20.80
2022-08-21T20:50:13.934Z,21.10
2022-08-21T20:52:42.160Z,20.70
2022-08-21T20:55:14.228Z,20.60
2022-08-21T20:58:07.569Z,20.80
2022-08-21T21:00:38.849Z,20.80
2022-08-21T21:03:14.526Z,20.60
2022-08-21T21:05:54.748Z,20.50
2022-08-21T21:08:36.899Z,20.40
2022-08-21T21:11:19.528Z,20.50
2022-08-21T21:13:49.397Z,20.90
2022-08-21T21:16:22.187Z,21.00
2022-08-21T21:18:57.095Z,20.80
2022-08-21T21:21:34.134Z,20.70
2022-08-21T21:24:20.524Z,21.00
2022-08-21T21:26:54.076Z,21.10
2022-08-21T21:29:35.831Z,21.10
2022-08-21T21:32:04.239Z,21.00
2022-08-21T21:34:37.426Z,20.90
2022-08-21T21:37:07.900Z,20.60
2022-08-21T21:39:46.980Z,20.60
2022-08-21T21:42:32.756Z,20.60
2022-08-21T21:45:05.368Z,20.40
2022-08-21T21:47:54.844Z,20.30
2022-08-21T21:50:52.432Z,20.30
2022-08-21T21:53:36.468Z,20.20
2022-08-21T21:56:27.502Z,20.40
2022-08-21T21:59:29.993Z,20.60
2022-08-21T22:02:06.818Z,20.20
2022-08-21T22:05:08.876Z,20.00
2022-08-21T22:07:57.931Z,19.90
2022-08-21T22:10:42.993Z,19.80
2022-08-21T22:13:26.561Z,19.70
2022-08-21T22:15:55.038Z,19.70
2022-08-21T22:18:26.676Z,19.70
2022-08-21T22:21:08.579Z,19.70
2022-08-21T22:23:42.777Z,19.70
2022-08-21T22:26:16.573Z,19.60
2022-08-21T22:28:48.376Z,19.60
2022-08-21T22:31:18.311Z,19.60
2022-08-21T22:34:18.450Z,19.50
2022-08-21T22:36:56.315Z,19.50
2022-08-21T22:39:33.182Z,19.50
2022-08-21T22:42:13.601Z,19.40
2022-08-21T22:44:52.929Z,19.50
2022-08-21T22:47:36.554Z,19.80
2022-08-21T22:50:15.772Z,20.10
2022-08-21T22:52:53.987Z,20.00
2022-08-21T22:55:37.542Z,20.10
2022-08-21T22:58:38.428Z,20.20
2022-08-21T23:01:27.600Z,19.80
2022-08-21T23:03:58.992Z,19.50
2022-08-21T23:06:46.659Z,19.40
2022-08-21T23:09:21.119Z,19.30
2022-08-21T23:11:50.698Z,19.20
2022-08-21T23:14:18.323Z,19.20
2022-08-21T23:17:14.458Z,19.30
2022-08-21T23:19:57.169Z,19.40
2022-08-21T23:22:47.287Z,19.60
2022-08-21T23:25:38.253Z,19.80
2022-08-21T23:28:45.994Z,19.90
2022-08-21T23:31:18.483Z,19.50
2022-08-21T23:34:06.146Z,19.30
2022-08-21T23:37:23.276Z,19.60
2022-08-21T23:40:15.258Z,19.80
2022-08-21T23:43:09.796Z,19.80
2022-08-21T23:45:40.532Z,19.70
2022-08-21T23:48:51.907Z,19.70
2022-08-21T23:51:33.921Z,19.40
2022-08-21T23:54:10.249Z,19.20
2022-08-21T23:57:08.263Z,18.90
